Terminal Aerodrome Forecast
Issued by NWS Boston, MA

Current Version | Previous Version | Text Only | Print | Product List | Glossary On
Versions: 1 2 3 4 5 6 7 8 9 10 11 12 13 14 15 16 17 18 19 20 21 22 23 24 25 26 27 28 29 30 31 32 33 34 35 36 37 38 39 40 41 42 43 44
000 FTUS41 KBOX 040540 TAFPVD TAF KPVD 040540Z 0406/0506 22007KT P6SM SCT010 FM041300 21007KT P6SM BKN070 FM041600 22011G18KT P6SM SCT060 FM042000 23012G21KT P6SM BKN070 FM050100 24007KT P6SM SCT070=

USA.gov is the U.S. government's official web portal to all federal, state and local government web resources and services.